sensor_id;sensor_type;location;lat;lon;timestamp;temperature;humidity
12276;DHT22;6200;48.144;11.424;2023-10-31T00:01:17;11.50;99.90
12276;DHT22;6200;48.144;11.424;2023-10-31T00:03:42;11.00;99.90
12276;DHT22;6200;48.144;11.424;2023-10-31T00:06:10;11.00;99.90
12276;DHT22;6200;48.144;11.424;2023-10-31T00:08:35;11.00;99.90
12276;DHT22;6200;48.144;11.424;2023-10-31T00:11:01;10.90;99.90
12276;DHT22;6200;48.144;11.424;2023-10-31T00:13:26;10.90;99.90
12276;DHT22;6200;48.144;11.424;2023-10-31T00:15:52;10.80;99.90
12276;DHT22;6200;48.144;11.424;2023-10-31T00:18:17;12.20;99.90
12276;DHT22;6200;48.144;11.424;2023-10-31T00:20:44;11.20;99.90
12276;DHT22;6200;48.144;11.424;2023-10-31T00:23:10;10.80;99.90
12276;DHT22;6200;48.144;11.424;2023-10-31T00:25:36;10.80;99.90
12276;DHT22;6200;48.144;11.424;2023-10-31T00:28:01;10.70;99.90
12276;DHT22;6200;48.144;11.424;2023-10-31T00:30:27;10.70;99.90
12276;DHT22;6200;48.144;11.424;2023-10-31T00:32:52;10.80;99.90
12276;DHT22;6200;48.144;11.424;2023-10-31T00:35:18;10.70;99.90
12276;DHT22;6200;48.144;11.424;2023-10-31T00:37:43;10.60;99.90
12276;DHT22;6200;48.144;11.424;2023-10-31T00:40:09;10.60;99.90
12276;DHT22;6200;48.144;11.424;2023-10-31T00:42:39;10.60;99.90
12276;DHT22;6200;48.144;11.424;2023-10-31T00:45:07;10.60;99.90
12276;DHT22;6200;48.144;11.424;2023-10-31T00:47:33;10.60;99.90
12276;DHT22;6200;48.144;11.424;2023-10-31T00:49:58;10.60;99.90
12276;DHT22;6200;48.144;11.424;2023-10-31T00:52:24;10.60;99.90
12276;DHT22;6200;48.144;11.424;2023-10-31T00:54:50;10.60;99.90
12276;DHT22;6200;48.144;11.424;2023-10-31T00:57:15;10.50;99.90
12276;DHT22;6200;48.144;11.424;2023-10-31T00:59:41;10.50;99.90
12276;DHT22;6200;48.144;11.424;2023-10-31T01:02:06;10.50;99.90
12276;DHT22;6200;48.144;11.424;2023-10-31T01:04:32;10.50;99.90
12276;DHT22;6200;48.144;11.424;2023-10-31T01:06:57;10.50;99.90
12276;DHT22;6200;48.144;11.424;2023-10-31T01:09:23;10.50;99.90
12276;DHT22;6200;48.144;11.424;2023-10-31T01:11:49;10.50;99.90
12276;DHT22;6200;48.144;11.424;2023-10-31T01:14:14;10.50;99.90
12276;DHT22;6200;48.144;11.424;2023-10-31T01:16:40;10.50;99.90
12276;DHT22;6200;48.144;11.424;2023-10-31T01:19:06;10.50;99.90
12276;DHT22;6200;48.144;11.424;2023-10-31T01:21:32;10.50;99.90
12276;DHT22;6200;48.144;11.424;2023-10-31T01:23:59;10.50;99.90
12276;DHT22;6200;48.144;11.424;2023-10-31T01:26:24;10.50;99.90
12276;DHT22;6200;48.144;11.424;2023-10-31T01:28:50;10.40;99.90
12276;DHT22;6200;48.144;11.424;2023-10-31T01:31:17;10.40;99.90
12276;DHT22;6200;48.144;11.424;2023-10-31T01:33:42;10.40;99.90
12276;DHT22;6200;48.144;11.424;2023-10-31T01:36:08;10.40;99.90
12276;DHT22;6200;48.144;11.424;2023-10-31T01:38:35;10.40;99.90
12276;DHT22;6200;48.144;11.424;2023-10-31T01:41:01;10.40;99.90
12276;DHT22;6200;48.144;11.424;2023-10-31T01:43:34;10.40;99.90
12276;DHT22;6200;48.144;11.424;2023-10-31T01:46:00;10.40;99.90
12276;DHT22;6200;48.144;11.424;2023-10-31T01:48:28;10.40;99.90
12276;DHT22;6200;48.144;11.424;2023-10-31T01:50:54;10.60;99.90
12276;DHT22;6200;48.144;11.424;2023-10-31T01:53:20;10.40;99.90
12276;DHT22;6200;48.144;11.424;2023-10-31T01:55:46;10.40;99.90
12276;DHT22;6200;48.144;11.424;2023-10-31T01:58:12;10.40;99.90
12276;DHT22;6200;48.144;11.424;2023-10-31T02:00:42;9.30;99.90
12276;DHT22;6200;48.144;11.424;2023-10-31T02:03:08;11.30;99.90
12276;DHT22;6200;48.144;11.424;2023-10-31T02:05:34;10.30;99.90
12276;DHT22;6200;48.144;11.424;2023-10-31T02:08:01;10.30;99.90
12276;DHT22;6200;48.144;11.424;2023-10-31T02:10:26;11.30;99.90
12276;DHT22;6200;48.144;11.424;2023-10-31T02:12:52;10.30;99.90
12276;DHT22;6200;48.144;11.424;2023-10-31T02:15:18;10.30;99.90
12276;DHT22;6200;48.144;11.424;2023-10-31T02:17:43;10.30;99.90
12276;DHT22;6200;48.144;11.424;2023-10-31T02:20:09;10.30;99.90
12276;DHT22;6200;48.144;11.424;2023-10-31T02:22:35;10.30;99.90
12276;DHT22;6200;48.144;11.424;2023-10-31T02:25:00;10.30;99.90
12276;DHT22;6200;48.144;11.424;2023-10-31T02:27:26;10.30;99.90
12276;DHT22;6200;48.144;11.424;2023-10-31T02:29:51;11.70;99.90
12276;DHT22;6200;48.144;11.424;2023-10-31T02:32:17;10.20;99.90
12276;DHT22;6200;48.144;11.424;2023-10-31T02:34:45;10.20;99.90
12276;DHT22;6200;48.144;11.424;2023-10-31T02:37:10;10.20;99.90
12276;DHT22;6200;48.144;11.424;2023-10-31T02:39:37;10.20;99.90
12276;DHT22;6200;48.144;11.424;2023-10-31T02:42:03;10.20;99.90
12276;DHT22;6200;48.144;11.424;2023-10-31T02:44:28;10.10;99.90
12276;DHT22;6200;48.144;11.424;2023-10-31T02:46:54;10.10;99.90
12276;DHT22;6200;48.144;11.424;2023-10-31T02:49:21;10.10;99.90
12276;DHT22;6200;48.144;11.424;2023-10-31T02:51:46;10.10;99.90
12276;DHT22;6200;48.144;11.424;2023-10-31T02:54:12;10.20;99.90
12276;DHT22;6200;48.144;11.424;2023-10-31T02:56:37;10.10;99.90
12276;DHT22;6200;48.144;11.424;2023-10-31T02:59:03;10.10;99.90
12276;DHT22;6200;48.144;11.424;2023-10-31T03:01:29;10.10;99.90
12276;DHT22;6200;48.144;11.424;2023-10-31T03:03:55;10.10;99.90
12276;DHT22;6200;48.144;11.424;2023-10-31T03:06:21;10.10;99.90
12276;DHT22;6200;48.144;11.424;2023-10-31T03:08:47;10.10;99.90
12276;DHT22;6200;48.144;11.424;2023-10-31T03:11:26;10.10;99.90
12276;DHT22;6200;48.144;11.424;2023-10-31T03:13:52;10.10;99.90
12276;DHT22;6200;48.144;11.424;2023-10-31T03:16:18;10.10;99.90
12276;DHT22;6200;48.144;11.424;2023-10-31T03:18:45;10.10;99.90
12276;DHT22;6200;48.144;11.424;2023-10-31T03:21:11;10.10;99.90
12276;DHT22;6200;48.144;11.424;2023-10-31T03:23:37;10.10;99.90
12276;DHT22;6200;48.144;11.424;2023-10-31T03:26:03;10.10;99.90
12276;DHT22;6200;48.144;11.424;2023-10-31T03:28:28;10.10;99.90
12276;DHT22;6200;48.144;11.424;2023-10-31T03:30:54;10.90;99.90
12276;DHT22;6200;48.144;11.424;2023-10-31T03:33:19;10.00;99.90
12276;DHT22;6200;48.144;11.424;2023-10-31T03:35:45;10.40;99.90
12276;DHT22;6200;48.144;11.424;2023-10-31T03:38:11;10.00;99.90
12276;DHT22;6200;48.144;11.424;2023-10-31T03:40:37;10.00;99.90
12276;DHT22;6200;48.144;11.424;2023-10-31T03:43:02;10.00;99.90
12276;DHT22;6200;48.144;11.424;2023-10-31T03:45:29;10.00;99.90
12276;DHT22;6200;48.144;11.424;2023-10-31T03:47:54;10.00;99.90
12276;DHT22;6200;48.144;11.424;2023-10-31T03:50:20;10.00;99.90
12276;DHT22;6200;48.144;11.424;2023-10-31T03:52:45;10.00;99.90
12276;DHT22;6200;48.144;11.424;2023-10-31T03:55:11;10.00;99.90
12276;DHT22;6200;48.144;11.424;2023-10-31T03:57:36;10.00;99.90
12276;DHT22;6200;48.144;11.424;2023-10-31T04:00:02;10.00;99.90
12276;DHT22;6200;48.144;11.424;2023-10-31T04:02:30;9.90;99.90
12276;DHT22;6200;48.144;11.424;2023-10-31T04:04:55;10.00;99.90
12276;DHT22;6200;48.144;11.424;2023-10-31T04:07:21;10.00;99.90
12276;DHT22;6200;48.144;11.424;2023-10-31T04:09:46;10.00;99.90
12276;DHT22;6200;48.144;11.424;2023-10-31T04:12:12;10.00;99.90
12276;DHT22;6200;48.144;11.424;2023-10-31T04:14:38;10.00;99.90
12276;DHT22;6200;48.144;11.424;2023-10-31T04:17:04;9.60;99.90
12276;DHT22;6200;48.144;11.424;2023-10-31T04:19:30;9.90;99.90
12276;DHT22;6200;48.144;11.424;2023-10-31T04:21:55;10.00;99.90
12276;DHT22;6200;48.144;11.424;2023-10-31T04:24:21;10.00;99.90
12276;DHT22;6200;48.144;11.424;2023-10-31T04:26:46;9.90;99.90
12276;DHT22;6200;48.144;11.424;2023-10-31T04:29:12;9.90;99.90
12276;DHT22;6200;48.144;11.424;2023-10-31T04:31:38;9.90;99.90
12276;DHT22;6200;48.144;11.424;2023-10-31T04:34:04;9.90;99.90
12276;DHT22;6200;48.144;11.424;2023-10-31T04:36:29;9.90;99.90
12276;DHT22;6200;48.144;11.424;2023-10-31T04:38:55;9.90;99.90
12276;DHT22;6200;48.144;11.424;2023-10-31T04:41:20;9.90;99.90
12276;DHT22;6200;48.144;11.424;2023-10-31T04:43:46;9.90;99.90
12276;DHT22;6200;48.144;11.424;2023-10-31T04:46:11;9.80;99.90
12276;DHT22;6200;48.144;11.424;2023-10-31T04:48:37;9.80;99.90
12276;DHT22;6200;48.144;11.424;2023-10-31T04:51:03;9.90;99.90
12276;DHT22;6200;48.144;11.424;2023-10-31T04:53:28;9.90;99.90
12276;DHT22;6200;48.144;11.424;2023-10-31T04:55:54;11.30;99.90
12276;DHT22;6200;48.144;11.424;2023-10-31T04:58:20;9.90;99.90
12276;DHT22;6200;48.144;11.424;2023-10-31T05:00:46;9.80;99.90
12276;DHT22;6200;48.144;11.424;2023-10-31T05:03:12;9.90;99.90
12276;DHT22;6200;48.144;11.424;2023-10-31T05:05:38;9.90;99.90
12276;DHT22;6200;48.144;11.424;2023-10-31T05:08:03;9.90;99.90
12276;DHT22;6200;48.144;11.424;2023-10-31T05:10:29;10.90;99.90
12276;DHT22;6200;48.144;11.424;2023-10-31T05:12:55;9.90;99.90
12276;DHT22;6200;48.144;11.424;2023-10-31T05:15:20;9.90;99.90
12276;DHT22;6200;48.144;11.424;2023-10-31T05:17:46;9.90;99.90
12276;DHT22;6200;48.144;11.424;2023-10-31T05:20:11;9.90;99.90
12276;DHT22;6200;48.144;11.424;2023-10-31T05:22:37;9.90;99.90
12276;DHT22;6200;48.144;11.424;2023-10-31T05:25:03;9.90;99.90
12276;DHT22;6200;48.144;11.424;2023-10-31T05:27:29;9.90;99.90
12276;DHT22;6200;48.144;11.424;2023-10-31T05:29:54;9.80;99.90
12276;DHT22;6200;48.144;11.424;2023-10-31T05:32:20;9.90;99.90
12276;DHT22;6200;48.144;11.424;2023-10-31T05:34:45;9.90;99.90
12276;DHT22;6200;48.144;11.424;2023-10-31T05:37:11;11.30;99.90
12276;DHT22;6200;48.144;11.424;2023-10-31T05:39:37;9.80;99.90
12276;DHT22;6200;48.144;11.424;2023-10-31T05:42:03;9.90;99.90
12276;DHT22;6200;48.144;11.424;2023-10-31T05:44:28;9.90;99.90
12276;DHT22;6200;48.144;11.424;2023-10-31T05:46:54;9.90;99.90
12276;DHT22;6200;48.144;11.424;2023-10-31T05:49:20;9.90;99.90
12276;DHT22;6200;48.144;11.424;2023-10-31T05:51:50;9.80;99.90
12276;DHT22;6200;48.144;11.424;2023-10-31T05:54:17;9.80;99.90
12276;DHT22;6200;48.144;11.424;2023-10-31T05:56:42;9.90;99.90
12276;DHT22;6200;48.144;11.424;2023-10-31T05:59:08;9.90;99.90
12276;DHT22;6200;48.144;11.424;2023-10-31T06:01:33;9.90;99.90
12276;DHT22;6200;48.144;11.424;2023-10-31T06:03:59;10.70;99.90
12276;DHT22;6200;48.144;11.424;2023-10-31T06:06:25;9.90;99.90
12276;DHT22;6200;48.144;11.424;2023-10-31T06:08:50;9.90;99.90
12276;DHT22;6200;48.144;11.424;2023-10-31T06:11:16;9.90;99.90
12276;DHT22;6200;48.144;11.424;2023-10-31T06:13:41;11.20;99.90
12276;DHT22;6200;48.144;11.424;2023-10-31T06:16:07;9.90;99.90
12276;DHT22;6200;48.144;11.424;2023-10-31T06:18:33;9.90;99.90
12276;DHT22;6200;48.144;11.424;2023-10-31T06:21:00;9.90;99.90
12276;DHT22;6200;48.144;11.424;2023-10-31T06:23:25;11.60;99.90
12276;DHT22;6200;48.144;11.424;2023-10-31T06:25:51;9.90;99.90
12276;DHT22;6200;48.144;11.424;2023-10-31T06:28:16;9.90;99.90
12276;DHT22;6200;48.144;11.424;2023-10-31T06:30:42;10.00;99.90
12276;DHT22;6200;48.144;11.424;2023-10-31T06:33:07;10.00;99.90
12276;DHT22;6200;48.144;11.424;2023-10-31T06:35:34;10.00;99.90
12276;DHT22;6200;48.144;11.424;2023-10-31T06:38:00;10.00;99.90
12276;DHT22;6200;48.144;11.424;2023-10-31T06:40:26;10.90;99.90
12276;DHT22;6200;48.144;11.424;2023-10-31T06:42:52;10.00;99.90
12276;DHT22;6200;48.144;11.424;2023-10-31T06:45:18;10.10;99.90
12276;DHT22;6200;48.144;11.424;2023-10-31T06:47:43;10.00;99.90
12276;DHT22;6200;48.144;11.424;2023-10-31T06:50:09;10.00;99.90
12276;DHT22;6200;48.144;11.424;2023-10-31T06:52:35;10.00;99.90
12276;DHT22;6200;48.144;11.424;2023-10-31T06:55:01;10.00;99.90
12276;DHT22;6200;48.144;11.424;2023-10-31T06:57:27;11.40;99.90
12276;DHT22;6200;48.144;11.424;2023-10-31T06:59:52;10.00;99.90
12276;DHT22;6200;48.144;11.424;2023-10-31T07:02:18;10.00;99.90
12276;DHT22;6200;48.144;11.424;2023-10-31T07:04:44;10.00;99.90
12276;DHT22;6200;48.144;11.424;2023-10-31T07:07:09;10.50;99.90
12276;DHT22;6200;48.144;11.424;2023-10-31T07:09:35;10.00;99.90
12276;DHT22;6200;48.144;11.424;2023-10-31T07:12:01;10.00;99.90
12276;DHT22;6200;48.144;11.424;2023-10-31T07:14:27;10.00;99.90
12276;DHT22;6200;48.144;11.424;2023-10-31T07:16:52;10.70;99.90
12276;DHT22;6200;48.144;11.424;2023-10-31T07:19:18;11.00;99.90
12276;DHT22;6200;48.144;11.424;2023-10-31T07:21:44;10.10;99.90
12276;DHT22;6200;48.144;11.424;2023-10-31T07:24:09;10.70;99.90
12276;DHT22;6200;48.144;11.424;2023-10-31T07:26:35;10.10;99.90
12276;DHT22;6200;48.144;11.424;2023-10-31T07:29:01;10.00;99.90
12276;DHT22;6200;48.144;11.424;2023-10-31T07:31:26;11.50;99.90
12276;DHT22;6200;48.144;11.424;2023-10-31T07:33:52;10.20;99.90
12276;DHT22;6200;48.144;11.424;2023-10-31T07:36:17;10.30;99.90
12276;DHT22;6200;48.144;11.424;2023-10-31T07:38:43;10.30;99.90
12276;DHT22;6200;48.144;11.424;2023-10-31T07:41:09;10.50;99.90
12276;DHT22;6200;48.144;11.424;2023-10-31T07:43:34;10.50;99.90
12276;DHT22;6200;48.144;11.424;2023-10-31T07:46:00;10.60;99.90
12276;DHT22;6200;48.144;11.424;2023-10-31T07:48:25;10.70;99.90
12276;DHT22;6200;48.144;11.424;2023-10-31T07:50:51;12.20;99.90
12276;DHT22;6200;48.144;11.424;2023-10-31T07:53:16;10.70;99.90
12276;DHT22;6200;48.144;11.424;2023-10-31T07:55:42;10.70;99.90
12276;DHT22;6200;48.144;11.424;2023-10-31T07:58:08;10.70;99.90
12276;DHT22;6200;48.144;11.424;2023-10-31T08:00:35;10.70;99.90
12276;DHT22;6200;48.144;11.424;2023-10-31T08:03:01;10.70;99.90
12276;DHT22;6200;48.144;11.424;2023-10-31T08:05:27;10.60;99.90
12276;DHT22;6200;48.144;11.424;2023-10-31T08:07:53;10.60;99.90
12276;DHT22;6200;48.144;11.424;2023-10-31T08:10:18;10.60;99.90
12276;DHT22;6200;48.144;11.424;2023-10-31T08:12:44;10.60;99.90
12276;DHT22;6200;48.144;11.424;2023-10-31T08:15:10;10.60;99.90
12276;DHT22;6200;48.144;11.424;2023-10-31T08:17:35;10.70;99.90
12276;DHT22;6200;48.144;11.424;2023-10-31T08:20:02;10.70;99.90
12276;DHT22;6200;48.144;11.424;2023-10-31T08:22:29;10.70;99.90
12276;DHT22;6200;48.144;11.424;2023-10-31T08:24:54;10.70;99.90
12276;DHT22;6200;48.144;11.424;2023-10-31T08:27:20;10.70;99.90
12276;DHT22;6200;48.144;11.424;2023-10-31T08:29:45;10.80;99.90
12276;DHT22;6200;48.144;11.424;2023-10-31T08:32:11;10.90;99.90
12276;DHT22;6200;48.144;11.424;2023-10-31T08:34:37;11.00;99.90
12276;DHT22;6200;48.144;11.424;2023-10-31T08:37:03;11.10;99.90
12276;DHT22;6200;48.144;11.424;2023-10-31T08:39:28;11.00;99.90
12276;DHT22;6200;48.144;11.424;2023-10-31T08:41:55;11.00;99.90
12276;DHT22;6200;48.144;11.424;2023-10-31T08:44:21;10.70;99.90
12276;DHT22;6200;48.144;11.424;2023-10-31T08:46:47;13.30;99.90
12276;DHT22;6200;48.144;11.424;2023-10-31T08:49:14;10.90;99.90
12276;DHT22;6200;48.144;11.424;2023-10-31T08:51:40;11.20;99.90
12276;DHT22;6200;48.144;11.424;2023-10-31T08:54:05;11.30;99.90
12276;DHT22;6200;48.144;11.424;2023-10-31T08:56:31;11.00;99.90
12276;DHT22;6200;48.144;11.424;2023-10-31T08:58:57;11.00;99.90
12276;DHT22;6200;48.144;11.424;2023-10-31T09:01:22;12.30;99.90
12276;DHT22;6200;48.144;11.424;2023-10-31T09:03:48;11.00;99.90
12276;DHT22;6200;48.144;11.424;2023-10-31T09:06:14;11.60;99.90
12276;DHT22;6200;48.144;11.424;2023-10-31T09:08:39;11.10;99.90
12276;DHT22;6200;48.144;11.424;2023-10-31T09:11:05;11.40;99.90
12276;DHT22;6200;48.144;11.424;2023-10-31T09:13:32;12.00;99.90
12276;DHT22;6200;48.144;11.424;2023-10-31T09:16:01;11.10;99.90
12276;DHT22;6200;48.144;11.424;2023-10-31T09:18:27;11.50;99.90
12276;DHT22;6200;48.144;11.424;2023-10-31T09:20:53;11.20;99.90
12276;DHT22;6200;48.144;11.424;2023-10-31T09:23:19;11.70;99.90
12276;DHT22;6200;48.144;11.424;2023-10-31T09:25:45;11.20;99.90
12276;DHT22;6200;48.144;11.424;2023-10-31T09:28:14;11.10;99.90
12276;DHT22;6200;48.144;11.424;2023-10-31T09:30:39;10.20;99.90
12276;DHT22;6200;48.144;11.424;2023-10-31T09:33:05;11.90;99.90
12276;DHT22;6200;48.144;11.424;2023-10-31T09:35:30;12.80;99.90
12276;DHT22;6200;48.144;11.424;2023-10-31T09:37:56;11.50;99.90
12276;DHT22;6200;48.144;11.424;2023-10-31T09:40:23;12.10;99.90
12276;DHT22;6200;48.144;11.424;2023-10-31T09:42:49;11.30;99.90
12276;DHT22;6200;48.144;11.424;2023-10-31T09:45:15;11.30;99.90
12276;DHT22;6200;48.144;11.424;2023-10-31T09:47:41;11.40;99.90
12276;DHT22;6200;48.144;11.424;2023-10-31T09:50:10;11.40;99.90
12276;DHT22;6200;48.144;11.424;2023-10-31T09:52:40;11.40;99.90
12276;DHT22;6200;48.144;11.424;2023-10-31T09:55:06;11.50;99.90
12276;DHT22;6200;48.144;11.424;2023-10-31T09:57:33;11.50;99.90
12276;DHT22;6200;48.144;11.424;2023-10-31T09:59:59;11.70;99.90
12276;DHT22;6200;48.144;11.424;2023-10-31T10:02:24;11.40;99.90
12276;DHT22;6200;48.144;11.424;2023-10-31T10:04:50;11.50;99.90
12276;DHT22;6200;48.144;11.424;2023-10-31T10:07:16;11.50;99.90
12276;DHT22;6200;48.144;11.424;2023-10-31T10:09:44;12.40;99.90
12276;DHT22;6200;48.144;11.424;2023-10-31T10:12:12;13.20;99.90
12276;DHT22;6200;48.144;11.424;2023-10-31T10:14:38;11.50;99.90
12276;DHT22;6200;48.144;11.424;2023-10-31T10:17:15;11.60;99.90
12276;DHT22;6200;48.144;11.424;2023-10-31T10:19:41;11.60;99.90
12276;DHT22;6200;48.144;11.424;2023-10-31T10:22:07;11.60;99.90
12276;DHT22;6200;48.144;11.424;2023-10-31T10:24:33;11.60;99.90
12276;DHT22;6200;48.144;11.424;2023-10-31T10:26:58;11.60;99.90
12276;DHT22;6200;48.144;11.424;2023-10-31T10:29:24;11.70;99.90
12276;DHT22;6200;48.144;11.424;2023-10-31T10:31:51;11.80;99.90
12276;DHT22;6200;48.144;11.424;2023-10-31T10:34:17;11.90;99.90
12276;DHT22;6200;48.144;11.424;2023-10-31T10:36:48;11.90;99.90
12276;DHT22;6200;48.144;11.424;2023-10-31T10:39:22;12.00;99.90
12276;DHT22;6200;48.144;11.424;2023-10-31T10:41:55;12.00;99.90
12276;DHT22;6200;48.144;11.424;2023-10-31T10:44:36;12.10;99.90
12276;DHT22;6200;48.144;11.424;2023-10-31T10:47:05;12.20;99.90
12276;DHT22;6200;48.144;11.424;2023-10-31T10:49:36;12.30;99.90
12276;DHT22;6200;48.144;11.424;2023-10-31T10:52:16;12.40;99.90
12276;DHT22;6200;48.144;11.424;2023-10-31T10:55:08;11.80;99.90
12276;DHT22;6200;48.144;11.424;2023-10-31T10:57:38;12.40;99.90
12276;DHT22;6200;48.144;11.424;2023-10-31T11:00:08;12.30;99.90
12276;DHT22;6200;48.144;11.424;2023-10-31T11:02:39;12.50;99.90
12276;DHT22;6200;48.144;11.424;2023-10-31T11:05:06;12.60;99.90
12276;DHT22;6200;48.144;11.424;2023-10-31T11:07:34;12.60;99.90
12276;DHT22;6200;48.144;11.424;2023-10-31T11:10:01;12.80;99.90
12276;DHT22;6200;48.144;11.424;2023-10-31T11:12:30;12.70;99.90
12276;DHT22;6200;48.144;11.424;2023-10-31T11:15:01;12.80;99.90
12276;DHT22;6200;48.144;11.424;2023-10-31T11:17:33;12.90;99.90
12276;DHT22;6200;48.144;11.424;2023-10-31T11:20:00;13.00;99.90
12276;DHT22;6200;48.144;11.424;2023-10-31T11:22:36;14.10;99.90
12276;DHT22;6200;48.144;11.424;2023-10-31T11:25:01;13.10;99.90
12276;DHT22;6200;48.144;11.424;2023-10-31T11:27:27;13.10;99.90
12276;DHT22;6200;48.144;11.424;2023-10-31T11:29:54;13.20;99.90
12276;DHT22;6200;48.144;11.424;2023-10-31T11:32:24;13.20;99.90
12276;DHT22;6200;48.144;11.424;2023-10-31T11:34:52;13.30;99.90
12276;DHT22;6200;48.144;11.424;2023-10-31T11:37:32;14.70;99.90
12276;DHT22;6200;48.144;11.424;2023-10-31T11:40:21;13.30;99.90
12276;DHT22;6200;48.144;11.424;2023-10-31T11:42:56;13.40;99.90
12276;DHT22;6200;48.144;11.424;2023-10-31T11:48:05;13.40;99.90
12276;DHT22;6200;48.144;11.424;2023-10-31T11:50:32;14.50;99.90
12276;DHT22;6200;48.144;11.424;2023-10-31T11:53:06;13.50;99.90
12276;DHT22;6200;48.144;11.424;2023-10-31T11:55:33;13.60;99.90
12276;DHT22;6200;48.144;11.424;2023-10-31T12:00:45;13.80;99.90
12276;DHT22;6200;48.144;11.424;2023-10-31T12:03:11;14.20;99.90
12276;DHT22;6200;48.144;11.424;2023-10-31T12:05:37;14.50;99.90
12276;DHT22;6200;48.144;11.424;2023-10-31T12:08:03;13.70;99.90
12276;DHT22;6200;48.144;11.424;2023-10-31T12:10:29;13.70;99.90
12276;DHT22;6200;48.144;11.424;2023-10-31T12:12:57;15.10;99.90
12276;DHT22;6200;48.144;11.424;2023-10-31T12:15:24;15.30;99.90
12276;DHT22;6200;48.144;11.424;2023-10-31T12:17:50;13.80;99.90
12276;DHT22;6200;48.144;11.424;2023-10-31T12:20:16;13.80;99.90
12276;DHT22;6200;48.144;11.424;2023-10-31T12:22:42;15.20;99.90
12276;DHT22;6200;48.144;11.424;2023-10-31T12:25:10;14.00;99.90
12276;DHT22;6200;48.144;11.424;2023-10-31T12:27:48;14.00;99.90
12276;DHT22;6200;48.144;11.424;2023-10-31T12:30:22;14.10;99.90
12276;DHT22;6200;48.144;11.424;2023-10-31T12:32:54;14.10;99.90
12276;DHT22;6200;48.144;11.424;2023-10-31T12:35:22;14.60;99.90
12276;DHT22;6200;48.144;11.424;2023-10-31T12:37:49;13.90;99.90
12276;DHT22;6200;48.144;11.424;2023-10-31T12:40:17;13.90;99.90
12276;DHT22;6200;48.144;11.424;2023-10-31T12:42:47;13.90;99.90
12276;DHT22;6200;48.144;11.424;2023-10-31T12:45:13;14.10;99.90
12276;DHT22;6200;48.144;11.424;2023-10-31T12:47:39;14.30;99.90
12276;DHT22;6200;48.144;11.424;2023-10-31T12:50:15;13.30;99.90
12276;DHT22;6200;48.144;11.424;2023-10-31T12:55:22;13.80;99.90
12276;DHT22;6200;48.144;11.424;2023-10-31T12:57:49;13.10;99.90
12276;DHT22;6200;48.144;11.424;2023-10-31T13:00:16;13.00;99.90
12276;DHT22;6200;48.144;11.424;2023-10-31T13:02:49;13.00;99.90
12276;DHT22;6200;48.144;11.424;2023-10-31T13:05:15;14.10;99.90
12276;DHT22;6200;48.144;11.424;2023-10-31T13:07:48;14.00;99.90
12276;DHT22;6200;48.144;11.424;2023-10-31T13:10:16;13.00;99.90
12276;DHT22;6200;48.144;11.424;2023-10-31T13:12:49;13.00;99.90
12276;DHT22;6200;48.144;11.424;2023-10-31T13:15:20;14.10;99.90
12276;DHT22;6200;48.144;11.424;2023-10-31T13:17:46;13.10;99.90
12276;DHT22;6200;48.144;11.424;2023-10-31T13:20:13;14.00;99.90
12276;DHT22;6200;48.144;11.424;2023-10-31T13:22:40;14.50;99.90
12276;DHT22;6200;48.144;11.424;2023-10-31T13:25:07;14.20;99.90
12276;DHT22;6200;48.144;11.424;2023-10-31T13:27:35;13.20;99.90
12276;DHT22;6200;48.144;11.424;2023-10-31T13:30:01;15.80;99.90
12276;DHT22;6200;48.144;11.424;2023-10-31T13:32:31;13.70;99.90
12276;DHT22;6200;48.144;11.424;2023-10-31T13:34:57;14.20;99.90
12276;DHT22;6200;48.144;11.424;2023-10-31T13:37:23;14.70;99.90
12276;DHT22;6200;48.144;11.424;2023-10-31T13:39:48;12.90;99.90
12276;DHT22;6200;48.144;11.424;2023-10-31T13:42:14;12.80;99.90
12276;DHT22;6200;48.144;11.424;2023-10-31T13:44:43;12.70;99.90
12276;DHT22;6200;48.144;11.424;2023-10-31T13:47:09;12.60;99.90
12276;DHT22;6200;48.144;11.424;2023-10-31T13:49:38;12.60;99.90
12276;DHT22;6200;48.144;11.424;2023-10-31T13:52:04;12.60;99.90
12276;DHT22;6200;48.144;11.424;2023-10-31T13:54:34;12.60;99.90
12276;DHT22;6200;48.144;11.424;2023-10-31T13:56:59;12.60;99.90
12276;DHT22;6200;48.144;11.424;2023-10-31T13:59:27;12.60;99.90
12276;DHT22;6200;48.144;11.424;2023-10-31T14:01:52;12.50;99.90
12276;DHT22;6200;48.144;11.424;2023-10-31T14:04:21;14.10;99.90
12276;DHT22;6200;48.144;11.424;2023-10-31T14:06:47;12.60;99.90
12276;DHT22;6200;48.144;11.424;2023-10-31T14:09:13;13.70;99.90
12276;DHT22;6200;48.144;11.424;2023-10-31T14:11:40;12.50;99.90
12276;DHT22;6200;48.144;11.424;2023-10-31T14:14:06;13.50;99.90
12276;DHT22;6200;48.144;11.424;2023-10-31T14:16:41;13.80;99.90
12276;DHT22;6200;48.144;11.424;2023-10-31T14:19:10;12.10;99.90
12276;DHT22;6200;48.144;11.424;2023-10-31T14:21:35;12.30;99.90
12276;DHT22;6200;48.144;11.424;2023-10-31T14:24:01;12.60;99.90
12276;DHT22;6200;48.144;11.424;2023-10-31T14:26:29;12.40;99.90
12276;DHT22;6200;48.144;11.424;2023-10-31T14:28:55;13.10;99.90
12276;DHT22;6200;48.144;11.424;2023-10-31T14:31:21;13.30;99.90
12276;DHT22;6200;48.144;11.424;2023-10-31T14:33:47;12.30;99.90
12276;DHT22;6200;48.144;11.424;2023-10-31T14:36:13;14.40;99.90
12276;DHT22;6200;48.144;11.424;2023-10-31T14:38:40;12.30;99.90
12276;DHT22;6200;48.144;11.424;2023-10-31T14:41:06;12.60;99.90
12276;DHT22;6200;48.144;11.424;2023-10-31T14:43:33;12.30;99.90
12276;DHT22;6200;48.144;11.424;2023-10-31T14:45:59;12.90;99.90
12276;DHT22;6200;48.144;11.424;2023-10-31T14:48:24;12.60;99.90
12276;DHT22;6200;48.144;11.424;2023-10-31T14:50:50;12.50;99.90
12276;DHT22;6200;48.144;11.424;2023-10-31T14:53:16;12.20;99.90
12276;DHT22;6200;48.144;11.424;2023-10-31T14:55:43;12.20;99.90
12276;DHT22;6200;48.144;11.424;2023-10-31T14:58:09;12.20;99.90
12276;DHT22;6200;48.144;11.424;2023-10-31T15:00:35;14.10;99.90
12276;DHT22;6200;48.144;11.424;2023-10-31T15:03:03;14.00;99.90
12276;DHT22;6200;48.144;11.424;2023-10-31T15:05:29;13.80;99.90
12276;DHT22;6200;48.144;11.424;2023-10-31T15:07:55;14.40;99.90
12276;DHT22;6200;48.144;11.424;2023-10-31T15:10:22;12.20;99.90
12276;DHT22;6200;48.144;11.424;2023-10-31T15:12:48;12.90;99.90
12276;DHT22;6200;48.144;11.424;2023-10-31T15:15:16;12.30;99.90
12276;DHT22;6200;48.144;11.424;2023-10-31T15:17:42;12.20;99.90
12276;DHT22;6200;48.144;11.424;2023-10-31T15:20:08;13.50;99.90
12276;DHT22;6200;48.144;11.424;2023-10-31T15:22:40;12.10;99.90
12276;DHT22;6200;48.144;11.424;2023-10-31T15:25:10;12.10;99.90
12276;DHT22;6200;48.144;11.424;2023-10-31T15:27:36;14.00;99.90
12276;DHT22;6200;48.144;11.424;2023-10-31T15:30:03;13.20;99.90
12276;DHT22;6200;48.144;11.424;2023-10-31T15:32:28;12.10;99.90
12276;DHT22;6200;48.144;11.424;2023-10-31T15:34:54;12.10;99.90
12276;DHT22;6200;48.144;11.424;2023-10-31T15:37:19;12.10;99.90